sensor_id;sensor_type;location;lat;lon;timestamp;P1;durP1;ratioP1;P2;durP2;ratioP2
13753;SDS011;6948;51.216;6.778;2023-05-27T00:01:18;17.80;;;6.07;;
13753;SDS011;6948;51.216;6.778;2023-05-27T00:03:45;16.40;;;5.87;;
13753;SDS011;6948;51.216;6.778;2023-05-27T00:06:11;16.33;;;5.70;;
13753;SDS011;6948;51.216;6.778;2023-05-27T00:08:37;14.27;;;5.47;;
13753;SDS011;6948;51.216;6.778;2023-05-27T00:11:02;14.53;;;5.60;;
13753;SDS011;6948;51.216;6.778;2023-05-27T00:13:28;18.80;;;5.77;;
13753;SDS011;6948;51.216;6.778;2023-05-27T00:15:54;16.07;;;5.60;;
13753;SDS011;6948;51.216;6.778;2023-05-27T00:18:20;16.20;;;5.70;;
13753;SDS011;6948;51.216;6.778;2023-05-27T00:20:46;19.33;;;5.57;;
13753;SDS011;6948;51.216;6.778;2023-05-27T00:23:13;20.03;;;6.03;;
13753;SDS011;6948;51.216;6.778;2023-05-27T00:25:39;15.83;;;5.90;;
13753;SDS011;6948;51.216;6.778;2023-05-27T00:28:04;17.70;;;5.90;;
13753;SDS011;6948;51.216;6.778;2023-05-27T00:30:30;17.67;;;6.10;;
13753;SDS011;6948;51.216;6.778;2023-05-27T00:32:55;17.17;;;6.07;;
13753;SDS011;6948;51.216;6.778;2023-05-27T00:35:21;16.10;;;5.67;;
13753;SDS011;6948;51.216;6.778;2023-05-27T00:37:47;14.07;;;5.67;;
13753;SDS011;6948;51.216;6.778;2023-05-27T00:40:12;17.20;;;6.17;;
13753;SDS011;6948;51.216;6.778;2023-05-27T00:42:40;19.47;;;5.97;;
13753;SDS011;6948;51.216;6.778;2023-05-27T00:45:05;15.77;;;5.10;;
13753;SDS011;6948;51.216;6.778;2023-05-27T00:47:32;24.17;;;6.37;;
13753;SDS011;6948;51.216;6.778;2023-05-27T00:49:59;16.63;;;5.40;;
13753;SDS011;6948;51.216;6.778;2023-05-27T00:52:25;17.10;;;5.63;;
13753;SDS011;6948;51.216;6.778;2023-05-27T00:54:51;20.47;;;6.57;;
13753;SDS011;6948;51.216;6.778;2023-05-27T00:57:18;18.80;;;6.23;;
13753;SDS011;6948;51.216;6.778;2023-05-27T00:59:44;19.67;;;5.60;;
13753;SDS011;6948;51.216;6.778;2023-05-27T01:02:11;15.93;;;5.43;;
13753;SDS011;6948;51.216;6.778;2023-05-27T01:04:37;16.93;;;5.53;;
13753;SDS011;6948;51.216;6.778;2023-05-27T01:07:08;18.90;;;5.57;;
13753;SDS011;6948;51.216;6.778;2023-05-27T01:09:58;16.47;;;5.90;;
13753;SDS011;6948;51.216;6.778;2023-05-27T01:15:46;16.60;;;5.77;;
13753;SDS011;6948;51.216;6.778;2023-05-27T01:18:13;19.73;;;6.03;;
13753;SDS011;6948;51.216;6.778;2023-05-27T01:20:41;19.40;;;6.40;;
13753;SDS011;6948;51.216;6.778;2023-05-27T01:23:09;14.93;;;5.90;;
13753;SDS011;6948;51.216;6.778;2023-05-27T01:25:35;14.90;;;5.70;;
13753;SDS011;6948;51.216;6.778;2023-05-27T01:28:01;22.73;;;6.53;;
13753;SDS011;6948;51.216;6.778;2023-05-27T01:30:26;14.73;;;5.70;;
13753;SDS011;6948;51.216;6.778;2023-05-27T01:33:09;18.43;;;5.77;;
13753;SDS011;6948;51.216;6.778;2023-05-27T01:35:42;14.90;;;5.70;;
13753;SDS011;6948;51.216;6.778;2023-05-27T01:38:13;16.43;;;5.90;;
13753;SDS011;6948;51.216;6.778;2023-05-27T01:40:42;21.60;;;5.83;;
13753;SDS011;6948;51.216;6.778;2023-05-27T01:43:10;18.60;;;6.63;;
13753;SDS011;6948;51.216;6.778;2023-05-27T01:45:38;18.80;;;6.03;;
13753;SDS011;6948;51.216;6.778;2023-05-27T01:48:04;16.33;;;5.70;;
13753;SDS011;6948;51.216;6.778;2023-05-27T01:50:30;17.53;;;5.73;;
13753;SDS011;6948;51.216;6.778;2023-05-27T01:52:56;17.67;;;5.60;;
13753;SDS011;6948;51.216;6.778;2023-05-27T01:55:22;17.80;;;5.67;;
13753;SDS011;6948;51.216;6.778;2023-05-27T01:57:48;20.00;;;6.00;;
13753;SDS011;6948;51.216;6.778;2023-05-27T02:00:13;18.83;;;5.97;;
13753;SDS011;6948;51.216;6.778;2023-05-27T02:02:40;16.30;;;6.00;;
13753;SDS011;6948;51.216;6.778;2023-05-27T02:05:06;16.27;;;6.03;;
13753;SDS011;6948;51.216;6.778;2023-05-27T02:07:32;16.27;;;5.80;;
13753;SDS011;6948;51.216;6.778;2023-05-27T02:09:58;18.97;;;6.20;;
13753;SDS011;6948;51.216;6.778;2023-05-27T02:12:23;21.03;;;6.17;;
13753;SDS011;6948;51.216;6.778;2023-05-27T02:14:49;17.43;;;6.40;;
13753;SDS011;6948;51.216;6.778;2023-05-27T02:17:16;19.97;;;6.20;;
13753;SDS011;6948;51.216;6.778;2023-05-27T02:19:42;22.47;;;6.27;;
13753;SDS011;6948;51.216;6.778;2023-05-27T02:22:08;17.07;;;5.90;;
13753;SDS011;6948;51.216;6.778;2023-05-27T02:24:34;23.00;;;6.67;;
13753;SDS011;6948;51.216;6.778;2023-05-27T02:27:00;21.43;;;6.77;;
13753;SDS011;6948;51.216;6.778;2023-05-27T02:29:26;19.20;;;6.00;;
13753;SDS011;6948;51.216;6.778;2023-05-27T02:31:52;16.00;;;5.93;;
13753;SDS011;6948;51.216;6.778;2023-05-27T02:34:17;18.20;;;6.40;;
13753;SDS011;6948;51.216;6.778;2023-05-27T02:36:43;17.33;;;5.80;;
13753;SDS011;6948;51.216;6.778;2023-05-27T02:39:09;17.37;;;6.20;;
13753;SDS011;6948;51.216;6.778;2023-05-27T02:41:35;17.13;;;6.07;;
13753;SDS011;6948;51.216;6.778;2023-05-27T02:44:01;18.43;;;6.27;;
13753;SDS011;6948;51.216;6.778;2023-05-27T02:46:27;15.90;;;5.63;;
13753;SDS011;6948;51.216;6.778;2023-05-27T02:48:53;18.73;;;6.13;;
13753;SDS011;6948;51.216;6.778;2023-05-27T02:51:19;17.00;;;6.27;;
13753;SDS011;6948;51.216;6.778;2023-05-27T02:53:46;19.20;;;6.27;;
13753;SDS011;6948;51.216;6.778;2023-05-27T02:56:11;16.80;;;6.40;;
13753;SDS011;6948;51.216;6.778;2023-05-27T02:58:37;19.20;;;5.93;;
13753;SDS011;6948;51.216;6.778;2023-05-27T03:01:03;22.33;;;6.30;;
13753;SDS011;6948;51.216;6.778;2023-05-27T03:03:28;16.33;;;6.00;;
13753;SDS011;6948;51.216;6.778;2023-05-27T03:05:54;20.70;;;5.77;;
13753;SDS011;6948;51.216;6.778;2023-05-27T03:08:21;17.13;;;5.90;;
13753;SDS011;6948;51.216;6.778;2023-05-27T03:10:46;18.47;;;6.17;;
13753;SDS011;6948;51.216;6.778;2023-05-27T03:13:13;23.10;;;6.63;;
13753;SDS011;6948;51.216;6.778;2023-05-27T03:15:38;18.27;;;5.87;;
13753;SDS011;6948;51.216;6.778;2023-05-27T03:18:04;16.63;;;6.03;;
13753;SDS011;6948;51.216;6.778;2023-05-27T03:20:30;16.90;;;6.10;;
13753;SDS011;6948;51.216;6.778;2023-05-27T03:22:55;17.53;;;6.73;;
13753;SDS011;6948;51.216;6.778;2023-05-27T03:25:21;18.03;;;6.07;;
13753;SDS011;6948;51.216;6.778;2023-05-27T03:27:47;15.10;;;5.93;;
13753;SDS011;6948;51.216;6.778;2023-05-27T03:30:13;16.77;;;5.90;;
13753;SDS011;6948;51.216;6.778;2023-05-27T03:32:38;16.33;;;6.53;;
13753;SDS011;6948;51.216;6.778;2023-05-27T03:35:04;19.33;;;6.13;;
13753;SDS011;6948;51.216;6.778;2023-05-27T03:37:30;17.03;;;5.80;;
13753;SDS011;6948;51.216;6.778;2023-05-27T03:39:56;18.80;;;6.53;;
13753;SDS011;6948;51.216;6.778;2023-05-27T03:42:22;17.70;;;6.30;;
13753;SDS011;6948;51.216;6.778;2023-05-27T03:44:47;20.67;;;6.30;;
13753;SDS011;6948;51.216;6.778;2023-05-27T03:47:13;20.57;;;6.37;;
13753;SDS011;6948;51.216;6.778;2023-05-27T03:49:42;13.90;;;5.93;;
13753;SDS011;6948;51.216;6.778;2023-05-27T03:52:08;17.23;;;6.33;;
13753;SDS011;6948;51.216;6.778;2023-05-27T03:54:33;21.50;;;6.57;;
13753;SDS011;6948;51.216;6.778;2023-05-27T03:56:59;24.30;;;6.90;;
13753;SDS011;6948;51.216;6.778;2023-05-27T03:59:25;17.13;;;6.57;;
13753;SDS011;6948;51.216;6.778;2023-05-27T04:01:50;15.47;;;6.63;;
13753;SDS011;6948;51.216;6.778;2023-05-27T04:04:16;19.70;;;6.47;;
13753;SDS011;6948;51.216;6.778;2023-05-27T04:06:41;19.87;;;6.33;;
13753;SDS011;6948;51.216;6.778;2023-05-27T04:09:07;15.77;;;6.07;;
13753;SDS011;6948;51.216;6.778;2023-05-27T04:11:33;20.60;;;6.70;;
13753;SDS011;6948;51.216;6.778;2023-05-27T04:13:59;22.93;;;6.37;;
13753;SDS011;6948;51.216;6.778;2023-05-27T04:16:24;16.73;;;5.93;;
13753;SDS011;6948;51.216;6.778;2023-05-27T04:18:50;16.20;;;6.70;;
13753;SDS011;6948;51.216;6.778;2023-05-27T04:21:17;15.63;;;6.43;;
13753;SDS011;6948;51.216;6.778;2023-05-27T04:23:43;18.00;;;6.60;;
13753;SDS011;6948;51.216;6.778;2023-05-27T04:26:09;21.23;;;6.83;;
13753;SDS011;6948;51.216;6.778;2023-05-27T04:28:35;17.97;;;6.10;;
13753;SDS011;6948;51.216;6.778;2023-05-27T04:31:00;20.47;;;6.80;;
13753;SDS011;6948;51.216;6.778;2023-05-27T04:33:26;16.03;;;6.90;;
13753;SDS011;6948;51.216;6.778;2023-05-27T04:35:52;20.87;;;8.90;;
13753;SDS011;6948;51.216;6.778;2023-05-27T04:38:19;16.00;;;6.40;;
13753;SDS011;6948;51.216;6.778;2023-05-27T04:40:46;18.97;;;6.73;;
13753;SDS011;6948;51.216;6.778;2023-05-27T04:43:17;20.60;;;7.10;;
13753;SDS011;6948;51.216;6.778;2023-05-27T04:45:44;17.87;;;6.57;;
13753;SDS011;6948;51.216;6.778;2023-05-27T04:48:10;19.40;;;7.43;;
13753;SDS011;6948;51.216;6.778;2023-05-27T04:50:36;22.87;;;7.30;;
13753;SDS011;6948;51.216;6.778;2023-05-27T04:53:02;18.20;;;6.70;;
13753;SDS011;6948;51.216;6.778;2023-05-27T04:55:28;19.33;;;6.77;;
13753;SDS011;6948;51.216;6.778;2023-05-27T04:57:55;18.10;;;6.50;;
13753;SDS011;6948;51.216;6.778;2023-05-27T05:00:21;19.70;;;6.50;;
13753;SDS011;6948;51.216;6.778;2023-05-27T05:02:49;19.23;;;6.80;;
13753;SDS011;6948;51.216;6.778;2023-05-27T05:05:25;19.23;;;6.80;;
13753;SDS011;6948;51.216;6.778;2023-05-27T05:07:50;19.03;;;6.57;;
13753;SDS011;6948;51.216;6.778;2023-05-27T05:10:16;18.37;;;7.00;;
13753;SDS011;6948;51.216;6.778;2023-05-27T05:12:42;20.63;;;7.17;;
13753;SDS011;6948;51.216;6.778;2023-05-27T05:15:07;17.63;;;7.37;;
13753;SDS011;6948;51.216;6.778;2023-05-27T05:17:33;14.50;;;6.33;;
13753;SDS011;6948;51.216;6.778;2023-05-27T05:19:59;17.17;;;6.37;;
13753;SDS011;6948;51.216;6.778;2023-05-27T05:22:24;19.23;;;6.90;;
13753;SDS011;6948;51.216;6.778;2023-05-27T05:24:51;18.13;;;6.43;;
13753;SDS011;6948;51.216;6.778;2023-05-27T05:27:18;20.30;;;7.13;;
13753;SDS011;6948;51.216;6.778;2023-05-27T05:29:43;20.53;;;6.37;;
13753;SDS011;6948;51.216;6.778;2023-05-27T05:32:09;17.23;;;6.47;;
13753;SDS011;6948;51.216;6.778;2023-05-27T05:34:37;17.73;;;6.23;;
13753;SDS011;6948;51.216;6.778;2023-05-27T05:37:03;17.40;;;6.67;;
13753;SDS011;6948;51.216;6.778;2023-05-27T05:39:29;16.30;;;5.77;;
13753;SDS011;6948;51.216;6.778;2023-05-27T05:41:55;18.80;;;6.90;;
13753;SDS011;6948;51.216;6.778;2023-05-27T05:44:22;16.07;;;6.53;;
13753;SDS011;6948;51.216;6.778;2023-05-27T05:46:49;21.67;;;8.60;;
13753;SDS011;6948;51.216;6.778;2023-05-27T05:49:14;18.07;;;7.00;;
13753;SDS011;6948;51.216;6.778;2023-05-27T05:51:40;15.83;;;6.03;;
13753;SDS011;6948;51.216;6.778;2023-05-27T05:54:06;18.10;;;6.27;;
13753;SDS011;6948;51.216;6.778;2023-05-27T05:56:32;19.47;;;6.43;;
13753;SDS011;6948;51.216;6.778;2023-05-27T05:58:58;19.60;;;6.30;;
13753;SDS011;6948;51.216;6.778;2023-05-27T06:01:24;15.83;;;6.70;;
13753;SDS011;6948;51.216;6.778;2023-05-27T06:03:52;16.87;;;6.80;;
13753;SDS011;6948;51.216;6.778;2023-05-27T06:06:18;16.47;;;6.43;;
13753;SDS011;6948;51.216;6.778;2023-05-27T06:08:43;19.47;;;6.37;;
13753;SDS011;6948;51.216;6.778;2023-05-27T06:11:10;20.53;;;6.70;;
13753;SDS011;6948;51.216;6.778;2023-05-27T06:13:36;17.87;;;6.67;;
13753;SDS011;6948;51.216;6.778;2023-05-27T06:16:02;15.40;;;6.47;;
13753;SDS011;6948;51.216;6.778;2023-05-27T06:18:27;20.13;;;8.10;;
13753;SDS011;6948;51.216;6.778;2023-05-27T06:20:53;17.83;;;8.70;;
13753;SDS011;6948;51.216;6.778;2023-05-27T06:23:19;13.97;;;6.13;;
13753;SDS011;6948;51.216;6.778;2023-05-27T06:25:45;17.43;;;6.50;;
13753;SDS011;6948;51.216;6.778;2023-05-27T06:28:10;16.87;;;6.80;;
13753;SDS011;6948;51.216;6.778;2023-05-27T06:30:36;17.27;;;6.77;;
13753;SDS011;6948;51.216;6.778;2023-05-27T06:33:03;17.10;;;7.40;;
13753;SDS011;6948;51.216;6.778;2023-05-27T06:35:28;19.00;;;6.70;;
13753;SDS011;6948;51.216;6.778;2023-05-27T06:37:54;20.50;;;8.80;;
13753;SDS011;6948;51.216;6.778;2023-05-27T06:40:20;15.10;;;6.80;;
13753;SDS011;6948;51.216;6.778;2023-05-27T06:42:46;16.77;;;6.37;;
13753;SDS011;6948;51.216;6.778;2023-05-27T06:45:11;14.23;;;5.63;;
13753;SDS011;6948;51.216;6.778;2023-05-27T06:47:37;15.60;;;5.70;;
13753;SDS011;6948;51.216;6.778;2023-05-27T06:50:04;16.00;;;6.30;;
13753;SDS011;6948;51.216;6.778;2023-05-27T06:52:30;15.60;;;6.13;;
13753;SDS011;6948;51.216;6.778;2023-05-27T06:54:55;15.53;;;6.67;;
13753;SDS011;6948;51.216;6.778;2023-05-27T06:57:21;16.93;;;6.10;;
13753;SDS011;6948;51.216;6.778;2023-05-27T06:59:47;17.47;;;7.03;;
13753;SDS011;6948;51.216;6.778;2023-05-27T07:02:12;14.80;;;5.67;;
13753;SDS011;6948;51.216;6.778;2023-05-27T07:04:38;15.97;;;6.53;;
13753;SDS011;6948;51.216;6.778;2023-05-27T07:07:03;17.93;;;6.80;;
13753;SDS011;6948;51.216;6.778;2023-05-27T07:09:29;17.07;;;6.37;;
13753;SDS011;6948;51.216;6.778;2023-05-27T07:11:55;17.07;;;5.77;;
13753;SDS011;6948;51.216;6.778;2023-05-27T07:14:20;18.60;;;6.20;;
13753;SDS011;6948;51.216;6.778;2023-05-27T07:16:46;16.67;;;5.83;;
13753;SDS011;6948;51.216;6.778;2023-05-27T07:19:12;18.83;;;6.23;;
13753;SDS011;6948;51.216;6.778;2023-05-27T07:21:38;16.57;;;7.00;;
13753;SDS011;6948;51.216;6.778;2023-05-27T07:24:03;14.20;;;6.13;;
13753;SDS011;6948;51.216;6.778;2023-05-27T07:26:30;16.70;;;5.83;;
13753;SDS011;6948;51.216;6.778;2023-05-27T07:28:57;14.43;;;6.17;;
13753;SDS011;6948;51.216;6.778;2023-05-27T07:31:24;19.27;;;6.03;;
13753;SDS011;6948;51.216;6.778;2023-05-27T07:33:50;12.17;;;5.47;;
13753;SDS011;6948;51.216;6.778;2023-05-27T07:36:16;15.77;;;6.33;;
13753;SDS011;6948;51.216;6.778;2023-05-27T07:38:42;14.90;;;6.03;;
13753;SDS011;6948;51.216;6.778;2023-05-27T07:41:07;11.93;;;4.90;;
13753;SDS011;6948;51.216;6.778;2023-05-27T07:43:33;16.73;;;6.13;;
13753;SDS011;6948;51.216;6.778;2023-05-27T07:45:59;17.83;;;6.53;;
13753;SDS011;6948;51.216;6.778;2023-05-27T07:48:24;15.63;;;6.00;;
13753;SDS011;6948;51.216;6.778;2023-05-27T07:50:50;15.93;;;6.93;;
13753;SDS011;6948;51.216;6.778;2023-05-27T07:53:16;20.30;;;6.50;;
13753;SDS011;6948;51.216;6.778;2023-05-27T07:55:41;15.10;;;6.27;;
13753;SDS011;6948;51.216;6.778;2023-05-27T07:58:07;18.60;;;6.30;;
13753;SDS011;6948;51.216;6.778;2023-05-27T08:00:33;15.50;;;6.00;;
13753;SDS011;6948;51.216;6.778;2023-05-27T08:02:58;16.37;;;5.80;;
13753;SDS011;6948;51.216;6.778;2023-05-27T08:05:24;14.07;;;5.90;;
13753;SDS011;6948;51.216;6.778;2023-05-27T08:07:50;14.80;;;6.07;;
13753;SDS011;6948;51.216;6.778;2023-05-27T08:10:16;15.50;;;5.67;;
13753;SDS011;6948;51.216;6.778;2023-05-27T08:12:41;14.97;;;5.53;;
13753;SDS011;6948;51.216;6.778;2023-05-27T08:15:07;18.37;;;5.77;;
13753;SDS011;6948;51.216;6.778;2023-05-27T08:17:33;14.10;;;5.80;;
13753;SDS011;6948;51.216;6.778;2023-05-27T08:19:58;16.40;;;6.40;;
13753;SDS011;6948;51.216;6.778;2023-05-27T08:22:24;17.37;;;5.87;;
13753;SDS011;6948;51.216;6.778;2023-05-27T08:24:50;18.10;;;6.23;;
13753;SDS011;6948;51.216;6.778;2023-05-27T08:27:16;18.47;;;6.43;;
13753;SDS011;6948;51.216;6.778;2023-05-27T08:29:42;16.63;;;5.60;;
13753;SDS011;6948;51.216;6.778;2023-05-27T08:32:08;16.30;;;5.77;;
13753;SDS011;6948;51.216;6.778;2023-05-27T08:34:35;13.27;;;5.67;;
13753;SDS011;6948;51.216;6.778;2023-05-27T08:37:01;16.50;;;5.50;;
13753;SDS011;6948;51.216;6.778;2023-05-27T08:39:28;13.80;;;5.90;;
13753;SDS011;6948;51.216;6.778;2023-05-27T08:41:53;15.27;;;5.63;;
13753;SDS011;6948;51.216;6.778;2023-05-27T08:44:21;17.20;;;6.50;;
13753;SDS011;6948;51.216;6.778;2023-05-27T08:46:48;19.20;;;5.87;;
13753;SDS011;6948;51.216;6.778;2023-05-27T08:49:15;19.90;;;6.27;;
13753;SDS011;6948;51.216;6.778;2023-05-27T08:51:41;17.23;;;5.60;;
13753;SDS011;6948;51.216;6.778;2023-05-27T08:54:07;16.10;;;5.43;;
13753;SDS011;6948;51.216;6.778;2023-05-27T08:56:34;13.70;;;5.37;;
13753;SDS011;6948;51.216;6.778;2023-05-27T08:59:01;19.63;;;5.53;;
13753;SDS011;6948;51.216;6.778;2023-05-27T09:01:27;17.10;;;5.73;;
13753;SDS011;6948;51.216;6.778;2023-05-27T09:03:54;15.27;;;5.80;;
13753;SDS011;6948;51.216;6.778;2023-05-27T09:06:20;16.43;;;6.20;;
13753;SDS011;6948;51.216;6.778;2023-05-27T09:08:46;13.83;;;5.40;;
13753;SDS011;6948;51.216;6.778;2023-05-27T09:11:20;14.70;;;5.60;;
13753;SDS011;6948;51.216;6.778;2023-05-27T09:13:47;18.63;;;5.77;;
13753;SDS011;6948;51.216;6.778;2023-05-27T09:16:13;11.87;;;5.37;;
13753;SDS011;6948;51.216;6.778;2023-05-27T09:18:40;15.03;;;5.83;;
13753;SDS011;6948;51.216;6.778;2023-05-27T09:21:06;16.77;;;5.27;;
13753;SDS011;6948;51.216;6.778;2023-05-27T09:23:36;13.07;;;5.20;;
13753;SDS011;6948;51.216;6.778;2023-05-27T09:26:07;16.40;;;5.77;;
13753;SDS011;6948;51.216;6.778;2023-05-27T09:28:35;16.60;;;5.23;;
13753;SDS011;6948;51.216;6.778;2023-05-27T09:31:03;14.73;;;5.30;;
13753;SDS011;6948;51.216;6.778;2023-05-27T09:33:31;14.20;;;5.13;;
13753;SDS011;6948;51.216;6.778;2023-05-27T09:35:59;15.00;;;5.83;;
13753;SDS011;6948;51.216;6.778;2023-05-27T09:38:28;15.30;;;5.37;;
13753;SDS011;6948;51.216;6.778;2023-05-27T09:40:55;17.07;;;5.83;;
13753;SDS011;6948;51.216;6.778;2023-05-27T09:43:21;13.53;;;5.27;;
13753;SDS011;6948;51.216;6.778;2023-05-27T09:45:47;13.47;;;5.27;;
13753;SDS011;6948;51.216;6.778;2023-05-27T09:48:14;17.27;;;5.87;;
13753;SDS011;6948;51.216;6.778;2023-05-27T09:50:44;16.73;;;5.80;;
13753;SDS011;6948;51.216;6.778;2023-05-27T09:53:12;17.13;;;5.97;;
13753;SDS011;6948;51.216;6.778;2023-05-27T09:55:40;13.73;;;5.37;;
13753;SDS011;6948;51.216;6.778;2023-05-27T09:58:07;14.47;;;5.70;;
13753;SDS011;6948;51.216;6.778;2023-05-27T10:00:33;12.83;;;5.47;;
13753;SDS011;6948;51.216;6.778;2023-05-27T10:02:59;12.93;;;5.23;;
13753;SDS011;6948;51.216;6.778;2023-05-27T10:05:25;14.70;;;5.33;;
13753;SDS011;6948;51.216;6.778;2023-05-27T10:07:52;13.03;;;5.30;;
13753;SDS011;6948;51.216;6.778;2023-05-27T10:10:18;15.73;;;5.57;;
13753;SDS011;6948;51.216;6.778;2023-05-27T10:12:46;11.77;;;5.30;;
13753;SDS011;6948;51.216;6.778;2023-05-27T10:17:59;18.27;;;5.43;;
13753;SDS011;6948;51.216;6.778;2023-05-27T10:20:32;12.87;;;5.10;;
13753;SDS011;6948;51.216;6.778;2023-05-27T10:23:16;13.93;;;5.23;;
13753;SDS011;6948;51.216;6.778;2023-05-27T10:25:46;11.97;;;5.20;;
13753;SDS011;6948;51.216;6.778;2023-05-27T10:31:03;15.67;;;5.70;;
13753;SDS011;6948;51.216;6.778;2023-05-27T10:33:48;12.97;;;5.27;;
13753;SDS011;6948;51.216;6.778;2023-05-27T10:36:21;13.80;;;5.00;;
13753;SDS011;6948;51.216;6.778;2023-05-27T10:38:56;13.37;;;5.07;;
13753;SDS011;6948;51.216;6.778;2023-05-27T10:41:50;13.80;;;5.27;;
13753;SDS011;6948;51.216;6.778;2023-05-27T10:44:33;10.60;;;5.13;;
13753;SDS011;6948;51.216;6.778;2023-05-27T10:47:02;11.17;;;4.63;;
13753;SDS011;6948;51.216;6.778;2023-05-27T10:49:33;13.33;;;5.00;;
13753;SDS011;6948;51.216;6.778;2023-05-27T10:52:09;11.17;;;4.87;;
13753;SDS011;6948;51.216;6.778;2023-05-27T10:54:37;17.77;;;5.50;;
13753;SDS011;6948;51.216;6.778;2023-05-27T10:57:04;13.53;;;4.47;;
13753;SDS011;6948;51.216;6.778;2023-05-27T10:59:39;14.03;;;5.00;;
13753;SDS011;6948;51.216;6.778;2023-05-27T11:02:17;10.87;;;4.80;;
13753;SDS011;6948;51.216;6.778;2023-05-27T11:04:43;13.00;;;5.27;;
13753;SDS011;6948;51.216;6.778;2023-05-27T11:07:09;13.10;;;5.00;;
13753;SDS011;6948;51.216;6.778;2023-05-27T11:09:51;17.00;;;5.47;;
13753;SDS011;6948;51.216;6.778;2023-05-27T11:12:18;11.57;;;5.30;;
13753;SDS011;6948;51.216;6.778;2023-05-27T11:14:48;11.13;;;4.60;;
13753;SDS011;6948;51.216;6.778;2023-05-27T11:17:15;11.60;;;4.87;;
13753;SDS011;6948;51.216;6.778;2023-05-27T11:19:41;14.17;;;4.87;;
13753;SDS011;6948;51.216;6.778;2023-05-27T11:22:08;12.70;;;4.93;;
13753;SDS011;6948;51.216;6.778;2023-05-27T11:24:35;11.73;;;5.10;;
13753;SDS011;6948;51.216;6.778;2023-05-27T11:27:08;10.63;;;5.20;;
13753;SDS011;6948;51.216;6.778;2023-05-27T11:29:35;13.70;;;4.47;;
13753;SDS011;6948;51.216;6.778;2023-05-27T11:32:01;11.43;;;5.27;;
13753;SDS011;6948;51.216;6.778;2023-05-27T11:34:28;12.77;;;4.63;;
13753;SDS011;6948;51.216;6.778;2023-05-27T11:36:53;12.73;;;5.17;;
13753;SDS011;6948;51.216;6.778;2023-05-27T11:39:21;13.97;;;5.23;;
13753;SDS011;6948;51.216;6.778;2023-05-27T11:41:47;13.67;;;5.30;;
13753;SDS011;6948;51.216;6.778;2023-05-27T11:44:15;9.90;;;4.97;;
13753;SDS011;6948;51.216;6.778;2023-05-27T11:46:41;12.40;;;4.93;;
13753;SDS011;6948;51.216;6.778;2023-05-27T11:49:09;14.37;;;4.87;;
13753;SDS011;6948;51.216;6.778;2023-05-27T11:51:37;11.50;;;5.23;;
13753;SDS011;6948;51.216;6.778;2023-05-27T11:54:06;9.83;;;5.27;;
13753;SDS011;6948;51.216;6.778;2023-05-27T11:56:32;11.60;;;5.30;;
13753;SDS011;6948;51.216;6.778;2023-05-27T11:58:58;12.20;;;4.70;;
13753;SDS011;6948;51.216;6.778;2023-05-27T12:01:24;14.37;;;4.70;;
13753;SDS011;6948;51.216;6.778;2023-05-27T12:03:51;13.27;;;4.83;;
13753;SDS011;6948;51.216;6.778;2023-05-27T12:06:17;9.80;;;4.33;;
13753;SDS011;6948;51.216;6.778;2023-05-27T12:08:43;13.67;;;5.30;;
13753;SDS011;6948;51.216;6.778;2023-05-27T12:11:09;12.47;;;4.83;;
13753;SDS011;6948;51.216;6.778;2023-05-27T12:13:35;11.20;;;4.70;;
13753;SDS011;6948;51.216;6.778;2023-05-27T12:16:01;11.10;;;4.60;;
13753;SDS011;6948;51.216;6.778;2023-05-27T12:18:28;14.33;;;4.73;;
13753;SDS011;6948;51.216;6.778;2023-05-27T12:20:54;13.37;;;5.43;;
13753;SDS011;6948;51.216;6.778;2023-05-27T12:23:20;12.67;;;4.60;;
13753;SDS011;6948;51.216;6.778;2023-05-27T12:25:46;12.23;;;4.90;;
13753;SDS011;6948;51.216;6.778;2023-05-27T12:28:11;12.00;;;4.80;;
13753;SDS011;6948;51.216;6.778;2023-05-27T12:30:37;13.80;;;4.97;;
13753;SDS011;6948;51.216;6.778;2023-05-27T12:33:03;11.77;;;4.60;;
13753;SDS011;6948;51.216;6.778;2023-05-27T12:35:30;12.07;;;4.33;;
13753;SDS011;6948;51.216;6.778;2023-05-27T12:37:56;13.03;;;5.43;;
13753;SDS011;6948;51.216;6.778;2023-05-27T12:40:22;11.13;;;4.67;;
13753;SDS011;6948;51.216;6.778;2023-05-27T12:42:48;11.27;;;5.10;;
13753;SDS011;6948;51.216;6.778;2023-05-27T12:45:14;11.80;;;4.77;;
13753;SDS011;6948;51.216;6.778;2023-05-27T12:47:40;12.03;;;5.03;;
13753;SDS011;6948;51.216;6.778;2023-05-27T12:50:06;12.30;;;5.10;;
13753;SDS011;6948;51.216;6.778;2023-05-27T12:52:32;12.20;;;5.30;;
13753;SDS011;6948;51.216;6.778;2023-05-27T12:54:58;11.07;;;4.90;;
13753;SDS011;6948;51.216;6.778;2023-05-27T12:57:25;10.13;;;4.70;;
13753;SDS011;6948;51.216;6.778;2023-05-27T12:59:51;11.13;;;4.80;;
13753;SDS011;6948;51.216;6.778;2023-05-27T13:02:16;9.77;;;4.87;;
13753;SDS011;6948;51.216;6.778;2023-05-27T13:04:42;12.73;;;5.10;;
13753;SDS011;6948;51.216;6.778;2023-05-27T13:07:09;14.10;;;4.70;;
13753;SDS011;6948;51.216;6.778;2023-05-27T13:09:36;10.37;;;4.40;;
13753;SDS011;6948;51.216;6.778;2023-05-27T13:12:03;11.47;;;4.90;;
13753;SDS011;6948;51.216;6.778;2023-05-27T13:14:29;13.90;;;5.00;;
13753;SDS011;6948;51.216;6.778;2023-05-27T13:16:55;11.63;;;4.83;;
13753;SDS011;6948;51.216;6.778;2023-05-27T13:19:21;9.13;;;4.63;;
13753;SDS011;6948;51.216;6.778;2023-05-27T13:21:48;11.50;;;4.37;;
13753;SDS011;6948;51.216;6.778;2023-05-27T13:24:14;10.73;;;4.87;;
13753;SDS011;6948;51.216;6.778;2023-05-27T13:26:39;14.27;;;4.80;;
13753;SDS011;6948;51.216;6.778;2023-05-27T13:29:05;12.67;;;4.77;;
13753;SDS011;6948;51.216;6.778;2023-05-27T13:31:31;13.23;;;5.07;;
13753;SDS011;6948;51.216;6.778;2023-05-27T13:33:57;12.03;;;5.27;;
13753;SDS011;6948;51.216;6.778;2023-05-27T13:36:22;12.53;;;5.40;;
13753;SDS011;6948;51.216;6.778;2023-05-27T13:38:48;9.70;;;4.53;;
13753;SDS011;6948;51.216;6.778;2023-05-27T13:41:14;14.20;;;5.80;;
13753;SDS011;6948;51.216;6.778;2023-05-27T13:43:40;12.10;;;5.37;;
13753;SDS011;6948;51.216;6.778;2023-05-27T13:46:05;10.60;;;4.70;;
13753;SDS011;6948;51.216;6.778;2023-05-27T13:48:31;11.87;;;5.27;;
13753;SDS011;6948;51.216;6.778;2023-05-27T13:50:57;11.75;;;4.72;;
13753;SDS011;6948;51.216;6.778;2023-05-27T13:53:23;11.10;;;5.40;;
13753;SDS011;6948;51.216;6.778;2023-05-27T13:55:49;13.03;;;4.83;;
13753;SDS011;6948;51.216;6.778;2023-05-27T13:58:15;10.90;;;4.83;;
13753;SDS011;6948;51.216;6.778;2023-05-27T14:00:41;12.27;;;4.63;;
13753;SDS011;6948;51.216;6.778;2023-05-27T14:03:07;11.87;;;4.70;;
13753;SDS011;6948;51.216;6.778;2023-05-27T14:05:32;11.40;;;4.93;;
13753;SDS011;6948;51.216;6.778;2023-05-27T14:08:00;12.83;;;5.20;;
13753;SDS011;6948;51.216;6.778;2023-05-27T14:10:28;12.30;;;4.90;;
13753;SDS011;6948;51.216;6.778;2023-05-27T14:12:55;11.17;;;4.87;;
13753;SDS011;6948;51.216;6.778;2023-05-27T14:15:21;10.67;;;5.20;;
13753;SDS011;6948;51.216;6.778;2023-05-27T14:17:47;11.60;;;5.47;;
13753;SDS011;6948;51.216;6.778;2023-05-27T14:20:12;12.20;;;4.90;;
13753;SDS011;6948;51.216;6.778;2023-05-27T14:22:39;11.90;;;4.73;;
13753;SDS011;6948;51.216;6.778;2023-05-27T14:25:05;10.57;;;5.20;;
13753;SDS011;6948;51.216;6.778;2023-05-27T14:27:31;12.70;;;5.33;;
13753;SDS011;6948;51.216;6.778;2023-05-27T14:29:57;10.77;;;4.97;;
13753;SDS011;6948;51.216;6.778;2023-05-27T14:32:22;11.18;;;5.50;;
13753;SDS011;6948;51.216;6.778;2023-05-27T14:34:48;10.10;;;4.47;;
13753;SDS011;6948;51.216;6.778;2023-05-27T14:37:14;12.23;;;5.00;;
13753;SDS011;6948;51.216;6.778;2023-05-27T14:39:39;17.13;;;5.27;;
13753;SDS011;6948;51.216;6.778;2023-05-27T14:42:05;11.45;;;5.03;;
13753;SDS011;6948;51.216;6.778;2023-05-27T14:44:33;11.25;;;5.05;;
13753;SDS011;6948;51.216;6.778;2023-05-27T14:47:01;9.45;;;4.75;;
13753;SDS011;6948;51.216;6.778;2023-05-27T14:49:27;8.88;;;4.82;;
13753;SDS011;6948;51.216;6.778;2023-05-27T14:51:52;11.30;;;5.30;;
13753;SDS011;6948;51.216;6.778;2023-05-27T14:54:18;10.45;;;4.60;;